sensor_id;sensor_type;location;lat;lon;timestamp;P1;durP1;ratioP1;P2;durP2;ratioP2
4268;SDS011;2148;48.554;7.834;2023-09-30T00:01:36;5.70;;;4.37;;
4268;SDS011;2148;48.554;7.834;2023-09-30T00:04:01;5.57;;;4.93;;
4268;SDS011;2148;48.554;7.834;2023-09-30T00:06:28;5.13;;;4.70;;
4268;SDS011;2148;48.554;7.834;2023-09-30T00:08:53;4.90;;;4.40;;
4268;SDS011;2148;48.554;7.834;2023-09-30T00:11:19;4.73;;;4.33;;
4268;SDS011;2148;48.554;7.834;2023-09-30T00:13:44;4.50;;;4.20;;
4268;SDS011;2148;48.554;7.834;2023-09-30T00:16:10;5.20;;;4.70;;
4268;SDS011;2148;48.554;7.834;2023-09-30T00:18:36;5.53;;;5.03;;
4268;SDS011;2148;48.554;7.834;2023-09-30T00:21:01;4.93;;;4.43;;
4268;SDS011;2148;48.554;7.834;2023-09-30T00:23:26;4.60;;;4.20;;
4268;SDS011;2148;48.554;7.834;2023-09-30T00:25:51;5.10;;;4.70;;
4268;SDS011;2148;48.554;7.834;2023-09-30T00:28:17;4.53;;;4.23;;
4268;SDS011;2148;48.554;7.834;2023-09-30T00:30:43;5.13;;;4.83;;
4268;SDS011;2148;48.554;7.834;2023-09-30T00:33:12;6.50;;;4.87;;
4268;SDS011;2148;48.554;7.834;2023-09-30T00:35:38;5.47;;;4.97;;
4268;SDS011;2148;48.554;7.834;2023-09-30T00:38:03;5.27;;;4.87;;
4268;SDS011;2148;48.554;7.834;2023-09-30T00:40:29;5.13;;;4.73;;
4268;SDS011;2148;48.554;7.834;2023-09-30T00:42:54;5.20;;;4.77;;
4268;SDS011;2148;48.554;7.834;2023-09-30T00:45:20;6.03;;;5.50;;
4268;SDS011;2148;48.554;7.834;2023-09-30T00:47:46;5.77;;;5.23;;
4268;SDS011;2148;48.554;7.834;2023-09-30T00:50:11;7.53;;;5.97;;
4268;SDS011;2148;48.554;7.834;2023-09-30T00:52:37;6.47;;;5.80;;
4268;SDS011;2148;48.554;7.834;2023-09-30T00:55:03;6.50;;;5.80;;
4268;SDS011;2148;48.554;7.834;2023-09-30T00:57:30;5.93;;;5.30;;
4268;SDS011;2148;48.554;7.834;2023-09-30T00:59:56;6.13;;;5.53;;
4268;SDS011;2148;48.554;7.834;2023-09-30T01:02:21;6.00;;;5.43;;
4268;SDS011;2148;48.554;7.834;2023-09-30T01:04:47;7.33;;;5.40;;
4268;SDS011;2148;48.554;7.834;2023-09-30T01:07:13;6.73;;;6.10;;
4268;SDS011;2148;48.554;7.834;2023-09-30T01:09:38;6.63;;;5.83;;
4268;SDS011;2148;48.554;7.834;2023-09-30T01:12:04;6.27;;;5.70;;
4268;SDS011;2148;48.554;7.834;2023-09-30T01:14:33;6.17;;;5.53;;
4268;SDS011;2148;48.554;7.834;2023-09-30T01:17:07;5.93;;;5.33;;
4268;SDS011;2148;48.554;7.834;2023-09-30T01:19:33;7.53;;;5.43;;
4268;SDS011;2148;48.554;7.834;2023-09-30T01:21:59;6.57;;;5.30;;
4268;SDS011;2148;48.554;7.834;2023-09-30T01:24:25;6.57;;;5.63;;
4268;SDS011;2148;48.554;7.834;2023-09-30T01:26:51;5.97;;;5.40;;
4268;SDS011;2148;48.554;7.834;2023-09-30T01:29:16;6.83;;;5.77;;
4268;SDS011;2148;48.554;7.834;2023-09-30T01:31:42;6.57;;;5.97;;
4268;SDS011;2148;48.554;7.834;2023-09-30T01:34:07;5.50;;;5.00;;
4268;SDS011;2148;48.554;7.834;2023-09-30T01:36:33;6.03;;;5.40;;
4268;SDS011;2148;48.554;7.834;2023-09-30T01:38:58;6.47;;;5.87;;
4268;SDS011;2148;48.554;7.834;2023-09-30T01:41:23;6.20;;;5.60;;
4268;SDS011;2148;48.554;7.834;2023-09-30T01:43:49;6.60;;;5.63;;
4268;SDS011;2148;48.554;7.834;2023-09-30T01:46:14;6.03;;;5.43;;
4268;SDS011;2148;48.554;7.834;2023-09-30T01:48:40;5.77;;;5.27;;
4268;SDS011;2148;48.554;7.834;2023-09-30T01:51:05;6.00;;;5.50;;
4268;SDS011;2148;48.554;7.834;2023-09-30T01:53:31;6.50;;;5.90;;
4268;SDS011;2148;48.554;7.834;2023-09-30T01:55:56;6.63;;;5.57;;
4268;SDS011;2148;48.554;7.834;2023-09-30T01:58:22;6.57;;;5.70;;
4268;SDS011;2148;48.554;7.834;2023-09-30T02:00:47;6.20;;;5.60;;
4268;SDS011;2148;48.554;7.834;2023-09-30T02:03:12;6.27;;;5.67;;
4268;SDS011;2148;48.554;7.834;2023-09-30T02:05:38;6.97;;;6.33;;
4268;SDS011;2148;48.554;7.834;2023-09-30T02:08:04;5.80;;;5.30;;
4268;SDS011;2148;48.554;7.834;2023-09-30T02:10:30;7.37;;;5.93;;
4268;SDS011;2148;48.554;7.834;2023-09-30T02:12:56;6.77;;;6.13;;
4268;SDS011;2148;48.554;7.834;2023-09-30T02:15:21;8.27;;;5.97;;
4268;SDS011;2148;48.554;7.834;2023-09-30T02:17:47;6.67;;;6.17;;
4268;SDS011;2148;48.554;7.834;2023-09-30T02:20:13;7.00;;;6.30;;
4268;SDS011;2148;48.554;7.834;2023-09-30T02:22:43;6.00;;;5.50;;
4268;SDS011;2148;48.554;7.834;2023-09-30T02:25:09;6.63;;;5.97;;
4268;SDS011;2148;48.554;7.834;2023-09-30T02:27:34;8.50;;;5.83;;
4268;SDS011;2148;48.554;7.834;2023-09-30T02:30:00;6.30;;;5.70;;
4268;SDS011;2148;48.554;7.834;2023-09-30T02:32:25;6.37;;;5.80;;
4268;SDS011;2148;48.554;7.834;2023-09-30T02:34:51;8.30;;;5.40;;
4268;SDS011;2148;48.554;7.834;2023-09-30T02:37:16;6.80;;;6.20;;
4268;SDS011;2148;48.554;7.834;2023-09-30T02:39:43;6.10;;;5.60;;
4268;SDS011;2148;48.554;7.834;2023-09-30T02:42:09;6.50;;;5.63;;
4268;SDS011;2148;48.554;7.834;2023-09-30T02:44:35;7.00;;;5.60;;
4268;SDS011;2148;48.554;7.834;2023-09-30T02:47:00;7.17;;;6.03;;
4268;SDS011;2148;48.554;7.834;2023-09-30T02:49:25;6.70;;;6.10;;
4268;SDS011;2148;48.554;7.834;2023-09-30T02:51:51;7.60;;;5.83;;
4268;SDS011;2148;48.554;7.834;2023-09-30T02:54:16;7.80;;;6.17;;
4268;SDS011;2148;48.554;7.834;2023-09-30T02:56:41;7.03;;;5.57;;
4268;SDS011;2148;48.554;7.834;2023-09-30T02:59:07;6.03;;;5.30;;
4268;SDS011;2148;48.554;7.834;2023-09-30T03:01:32;5.73;;;5.23;;
4268;SDS011;2148;48.554;7.834;2023-09-30T03:03:58;6.10;;;5.50;;
4268;SDS011;2148;48.554;7.834;2023-09-30T03:06:23;6.60;;;5.43;;
4268;SDS011;2148;48.554;7.834;2023-09-30T03:08:48;6.00;;;5.40;;
4268;SDS011;2148;48.554;7.834;2023-09-30T03:11:14;6.80;;;5.57;;
4268;SDS011;2148;48.554;7.834;2023-09-30T03:13:39;7.03;;;5.50;;
4268;SDS011;2148;48.554;7.834;2023-09-30T03:16:07;6.47;;;5.87;;
4268;SDS011;2148;48.554;7.834;2023-09-30T03:18:33;6.57;;;5.90;;
4268;SDS011;2148;48.554;7.834;2023-09-30T03:20:58;6.67;;;5.23;;
4268;SDS011;2148;48.554;7.834;2023-09-30T03:23:26;7.37;;;5.60;;
4268;SDS011;2148;48.554;7.834;2023-09-30T03:25:58;5.93;;;5.23;;
4268;SDS011;2148;48.554;7.834;2023-09-30T03:28:24;6.30;;;5.67;;
4268;SDS011;2148;48.554;7.834;2023-09-30T03:30:49;6.50;;;5.73;;
4268;SDS011;2148;48.554;7.834;2023-09-30T03:33:15;7.40;;;5.50;;
4268;SDS011;2148;48.554;7.834;2023-09-30T03:35:40;6.43;;;5.83;;
4268;SDS011;2148;48.554;7.834;2023-09-30T03:38:06;6.30;;;5.70;;
4268;SDS011;2148;48.554;7.834;2023-09-30T03:40:34;6.47;;;5.83;;
4268;SDS011;2148;48.554;7.834;2023-09-30T03:43:00;6.20;;;5.30;;
4268;SDS011;2148;48.554;7.834;2023-09-30T03:45:26;5.93;;;5.43;;
4268;SDS011;2148;48.554;7.834;2023-09-30T03:47:51;7.00;;;5.63;;
4268;SDS011;2148;48.554;7.834;2023-09-30T03:50:17;6.77;;;6.07;;
4268;SDS011;2148;48.554;7.834;2023-09-30T03:52:42;5.67;;;5.20;;
4268;SDS011;2148;48.554;7.834;2023-09-30T03:55:12;6.53;;;5.70;;
4268;SDS011;2148;48.554;7.834;2023-09-30T03:57:39;6.90;;;6.30;;
4268;SDS011;2148;48.554;7.834;2023-09-30T04:00:04;7.30;;;6.43;;
4268;SDS011;2148;48.554;7.834;2023-09-30T04:02:41;9.13;;;6.97;;
4268;SDS011;2148;48.554;7.834;2023-09-30T04:05:07;7.43;;;6.47;;
4268;SDS011;2148;48.554;7.834;2023-09-30T04:07:35;7.20;;;6.60;;
4268;SDS011;2148;48.554;7.834;2023-09-30T04:10:01;7.50;;;6.80;;
4268;SDS011;2148;48.554;7.834;2023-09-30T04:12:26;8.87;;;6.93;;
4268;SDS011;2148;48.554;7.834;2023-09-30T04:14:52;7.67;;;6.97;;
4268;SDS011;2148;48.554;7.834;2023-09-30T04:17:18;7.63;;;6.83;;
4268;SDS011;2148;48.554;7.834;2023-09-30T04:19:43;7.50;;;6.80;;
4268;SDS011;2148;48.554;7.834;2023-09-30T04:22:08;7.53;;;6.80;;
4268;SDS011;2148;48.554;7.834;2023-09-30T04:24:33;7.13;;;6.47;;
4268;SDS011;2148;48.554;7.834;2023-09-30T04:26:59;7.53;;;6.60;;
4268;SDS011;2148;48.554;7.834;2023-09-30T04:29:28;6.57;;;5.97;;
4268;SDS011;2148;48.554;7.834;2023-09-30T04:31:54;7.70;;;7.00;;
4268;SDS011;2148;48.554;7.834;2023-09-30T04:34:20;6.87;;;6.37;;
4268;SDS011;2148;48.554;7.834;2023-09-30T04:36:46;7.50;;;6.87;;
4268;SDS011;2148;48.554;7.834;2023-09-30T04:39:11;9.77;;;7.23;;
4268;SDS011;2148;48.554;7.834;2023-09-30T04:41:37;7.97;;;7.23;;
4268;SDS011;2148;48.554;7.834;2023-09-30T04:44:06;7.77;;;7.20;;
4268;SDS011;2148;48.554;7.834;2023-09-30T04:46:31;7.77;;;7.07;;
4268;SDS011;2148;48.554;7.834;2023-09-30T04:48:57;9.17;;;8.37;;
4268;SDS011;2148;48.554;7.834;2023-09-30T04:51:22;8.53;;;7.80;;
4268;SDS011;2148;48.554;7.834;2023-09-30T04:53:50;8.33;;;7.57;;
4268;SDS011;2148;48.554;7.834;2023-09-30T04:56:15;8.47;;;7.50;;
4268;SDS011;2148;48.554;7.834;2023-09-30T04:58:41;7.57;;;7.03;;
4268;SDS011;2148;48.554;7.834;2023-09-30T05:01:06;8.13;;;7.40;;
4268;SDS011;2148;48.554;7.834;2023-09-30T05:03:33;7.93;;;7.33;;
4268;SDS011;2148;48.554;7.834;2023-09-30T05:06:00;7.50;;;6.97;;
4268;SDS011;2148;48.554;7.834;2023-09-30T05:08:25;8.63;;;7.93;;
4268;SDS011;2148;48.554;7.834;2023-09-30T05:10:50;8.57;;;7.87;;
4268;SDS011;2148;48.554;7.834;2023-09-30T05:13:16;8.20;;;7.60;;
4268;SDS011;2148;48.554;7.834;2023-09-30T05:15:42;8.77;;;7.70;;
4268;SDS011;2148;48.554;7.834;2023-09-30T05:18:07;8.37;;;7.67;;
4268;SDS011;2148;48.554;7.834;2023-09-30T05:20:35;7.77;;;7.20;;
4268;SDS011;2148;48.554;7.834;2023-09-30T05:23:02;8.23;;;7.47;;
4268;SDS011;2148;48.554;7.834;2023-09-30T05:25:28;8.40;;;7.70;;
4268;SDS011;2148;48.554;7.834;2023-09-30T05:27:53;8.27;;;7.63;;
4268;SDS011;2148;48.554;7.834;2023-09-30T05:30:19;8.20;;;7.60;;
4268;SDS011;2148;48.554;7.834;2023-09-30T05:32:45;8.87;;;8.17;;
4268;SDS011;2148;48.554;7.834;2023-09-30T05:35:11;9.90;;;9.10;;
4268;SDS011;2148;48.554;7.834;2023-09-30T05:37:38;9.43;;;8.73;;
4268;SDS011;2148;48.554;7.834;2023-09-30T05:40:05;8.27;;;7.67;;
4268;SDS011;2148;48.554;7.834;2023-09-30T05:42:41;9.03;;;8.17;;
4268;SDS011;2148;48.554;7.834;2023-09-30T05:45:08;8.63;;;7.93;;
4268;SDS011;2148;48.554;7.834;2023-09-30T05:47:34;8.50;;;7.70;;
4268;SDS011;2148;48.554;7.834;2023-09-30T05:49:59;8.67;;;8.07;;
4268;SDS011;2148;48.554;7.834;2023-09-30T05:52:25;8.00;;;7.40;;
4268;SDS011;2148;48.554;7.834;2023-09-30T05:54:50;9.00;;;8.20;;
4268;SDS011;2148;48.554;7.834;2023-09-30T05:57:15;8.30;;;7.60;;
4268;SDS011;2148;48.554;7.834;2023-09-30T05:59:41;8.40;;;7.70;;
4268;SDS011;2148;48.554;7.834;2023-09-30T06:02:06;9.20;;;8.40;;
4268;SDS011;2148;48.554;7.834;2023-09-30T06:04:31;8.57;;;7.97;;
4268;SDS011;2148;48.554;7.834;2023-09-30T06:06:58;8.67;;;7.87;;
4268;SDS011;2148;48.554;7.834;2023-09-30T06:09:23;9.17;;;8.10;;
4268;SDS011;2148;48.554;7.834;2023-09-30T06:11:50;9.13;;;8.33;;
4268;SDS011;2148;48.554;7.834;2023-09-30T06:14:15;9.20;;;8.53;;
4268;SDS011;2148;48.554;7.834;2023-09-30T06:16:41;8.90;;;8.17;;
4268;SDS011;2148;48.554;7.834;2023-09-30T06:19:06;10.17;;;9.23;;
4268;SDS011;2148;48.554;7.834;2023-09-30T06:21:31;9.53;;;8.73;;
4268;SDS011;2148;48.554;7.834;2023-09-30T06:23:59;9.10;;;8.40;;
4268;SDS011;2148;48.554;7.834;2023-09-30T06:26:25;8.97;;;8.27;;
4268;SDS011;2148;48.554;7.834;2023-09-30T06:28:51;8.90;;;8.20;;
4268;SDS011;2148;48.554;7.834;2023-09-30T06:31:18;8.90;;;8.13;;
4268;SDS011;2148;48.554;7.834;2023-09-30T06:33:44;8.73;;;8.07;;
4268;SDS011;2148;48.554;7.834;2023-09-30T06:36:09;9.33;;;8.63;;
4268;SDS011;2148;48.554;7.834;2023-09-30T06:38:35;14.07;;;12.57;;
4268;SDS011;2148;48.554;7.834;2023-09-30T06:41:02;8.90;;;8.10;;
4268;SDS011;2148;48.554;7.834;2023-09-30T06:43:27;8.77;;;8.00;;
4268;SDS011;2148;48.554;7.834;2023-09-30T06:45:53;9.17;;;8.27;;
4268;SDS011;2148;48.554;7.834;2023-09-30T06:48:19;9.87;;;9.00;;
4268;SDS011;2148;48.554;7.834;2023-09-30T06:50:46;9.20;;;8.43;;
4268;SDS011;2148;48.554;7.834;2023-09-30T06:53:14;10.03;;;9.30;;
4268;SDS011;2148;48.554;7.834;2023-09-30T06:55:46;10.43;;;9.43;;
4268;SDS011;2148;48.554;7.834;2023-09-30T06:58:11;10.13;;;9.23;;
4268;SDS011;2148;48.554;7.834;2023-09-30T07:00:37;10.10;;;9.20;;
4268;SDS011;2148;48.554;7.834;2023-09-30T07:03:03;9.50;;;8.60;;
4268;SDS011;2148;48.554;7.834;2023-09-30T07:05:28;10.10;;;9.10;;
4268;SDS011;2148;48.554;7.834;2023-09-30T07:07:54;9.70;;;8.80;;
4268;SDS011;2148;48.554;7.834;2023-09-30T07:10:19;9.27;;;8.37;;
4268;SDS011;2148;48.554;7.834;2023-09-30T07:12:45;9.23;;;8.33;;
4268;SDS011;2148;48.554;7.834;2023-09-30T07:15:10;8.23;;;7.53;;
4268;SDS011;2148;48.554;7.834;2023-09-30T07:17:35;7.67;;;7.07;;
4268;SDS011;2148;48.554;7.834;2023-09-30T07:20:02;7.47;;;6.57;;
4268;SDS011;2148;48.554;7.834;2023-09-30T07:22:27;7.63;;;6.73;;
4268;SDS011;2148;48.554;7.834;2023-09-30T07:24:53;6.90;;;6.30;;
4268;SDS011;2148;48.554;7.834;2023-09-30T07:27:18;7.10;;;6.40;;
4268;SDS011;2148;48.554;7.834;2023-09-30T07:29:43;6.73;;;6.23;;
4268;SDS011;2148;48.554;7.834;2023-09-30T07:32:09;8.37;;;6.57;;
4268;SDS011;2148;48.554;7.834;2023-09-30T07:34:34;6.47;;;5.80;;
4268;SDS011;2148;48.554;7.834;2023-09-30T07:37:00;6.37;;;5.80;;
4268;SDS011;2148;48.554;7.834;2023-09-30T07:39:25;6.80;;;6.13;;
4268;SDS011;2148;48.554;7.834;2023-09-30T07:41:50;7.30;;;6.40;;
4268;SDS011;2148;48.554;7.834;2023-09-30T07:44:15;7.33;;;6.17;;
4268;SDS011;2148;48.554;7.834;2023-09-30T07:46:41;6.77;;;6.00;;
4268;SDS011;2148;48.554;7.834;2023-09-30T07:49:08;7.10;;;6.50;;
4268;SDS011;2148;48.554;7.834;2023-09-30T07:51:33;6.47;;;5.97;;
4268;SDS011;2148;48.554;7.834;2023-09-30T07:53:59;6.03;;;5.53;;
4268;SDS011;2148;48.554;7.834;2023-09-30T07:56:24;6.30;;;5.73;;
4268;SDS011;2148;48.554;7.834;2023-09-30T07:58:49;6.83;;;5.60;;
4268;SDS011;2148;48.554;7.834;2023-09-30T08:01:15;6.30;;;5.70;;
4268;SDS011;2148;48.554;7.834;2023-09-30T08:03:40;6.60;;;6.00;;
4268;SDS011;2148;48.554;7.834;2023-09-30T08:06:07;6.30;;;5.70;;
4268;SDS011;2148;48.554;7.834;2023-09-30T08:08:33;7.90;;;5.70;;
4268;SDS011;2148;48.554;7.834;2023-09-30T08:10:59;6.23;;;5.57;;
4268;SDS011;2148;48.554;7.834;2023-09-30T08:13:25;5.90;;;5.40;;
4268;SDS011;2148;48.554;7.834;2023-09-30T08:15:50;7.20;;;5.70;;
4268;SDS011;2148;48.554;7.834;2023-09-30T08:18:16;7.97;;;6.80;;
4268;SDS011;2148;48.554;7.834;2023-09-30T08:20:41;7.97;;;7.27;;
4268;SDS011;2148;48.554;7.834;2023-09-30T08:23:07;6.63;;;6.13;;
4268;SDS011;2148;48.554;7.834;2023-09-30T08:25:32;7.00;;;6.30;;
4268;SDS011;2148;48.554;7.834;2023-09-30T08:27:57;5.97;;;5.37;;
4268;SDS011;2148;48.554;7.834;2023-09-30T08:30:22;7.40;;;6.70;;
4268;SDS011;2148;48.554;7.834;2023-09-30T08:32:48;9.37;;;8.47;;
4268;SDS011;2148;48.554;7.834;2023-09-30T08:35:13;8.33;;;7.50;;
4268;SDS011;2148;48.554;7.834;2023-09-30T08:37:40;6.77;;;6.17;;
4268;SDS011;2148;48.554;7.834;2023-09-30T08:40:05;8.53;;;7.83;;
4268;SDS011;2148;48.554;7.834;2023-09-30T08:42:31;7.90;;;7.17;;
4268;SDS011;2148;48.554;7.834;2023-09-30T08:44:58;7.73;;;5.90;;
4268;SDS011;2148;48.554;7.834;2023-09-30T08:47:25;6.27;;;5.77;;
4268;SDS011;2148;48.554;7.834;2023-09-30T08:49:52;6.47;;;5.90;;
4268;SDS011;2148;48.554;7.834;2023-09-30T08:52:21;8.07;;;7.30;;
4268;SDS011;2148;48.554;7.834;2023-09-30T08:54:47;9.97;;;9.07;;
4268;SDS011;2148;48.554;7.834;2023-09-30T08:57:13;10.40;;;9.40;;
4268;SDS011;2148;48.554;7.834;2023-09-30T08:59:40;11.07;;;10.17;;
4268;SDS011;2148;48.554;7.834;2023-09-30T09:02:09;10.70;;;9.90;;
4268;SDS011;2148;48.554;7.834;2023-09-30T09:04:35;10.37;;;9.57;;
4268;SDS011;2148;48.554;7.834;2023-09-30T09:07:01;11.87;;;11.07;;
4268;SDS011;2148;48.554;7.834;2023-09-30T09:09:27;9.50;;;8.57;;
4268;SDS011;2148;48.554;7.834;2023-09-30T09:11:52;8.80;;;8.10;;
4268;SDS011;2148;48.554;7.834;2023-09-30T09:14:17;10.90;;;9.93;;
4268;SDS011;2148;48.554;7.834;2023-09-30T09:16:53;7.77;;;7.07;;
4268;SDS011;2148;48.554;7.834;2023-09-30T09:19:19;6.10;;;5.60;;
4268;SDS011;2148;48.554;7.834;2023-09-30T09:21:59;6.90;;;6.20;;
4268;SDS011;2148;48.554;7.834;2023-09-30T09:24:29;6.10;;;5.43;;
4268;SDS011;2148;48.554;7.834;2023-09-30T09:27:12;6.20;;;5.60;;
4268;SDS011;2148;48.554;7.834;2023-09-30T09:29:39;6.20;;;5.23;;
4268;SDS011;2148;48.554;7.834;2023-09-30T09:32:14;5.87;;;4.87;;
4268;SDS011;2148;48.554;7.834;2023-09-30T09:34:41;7.10;;;5.73;;
4268;SDS011;2148;48.554;7.834;2023-09-30T09:39:49;6.50;;;5.93;;
4268;SDS011;2148;48.554;7.834;2023-09-30T09:42:27;5.30;;;4.90;;
4268;SDS011;2148;48.554;7.834;2023-09-30T09:44:54;6.17;;;5.10;;
4268;SDS011;2148;48.554;7.834;2023-09-30T09:47:22;5.80;;;5.20;;
4268;SDS011;2148;48.554;7.834;2023-09-30T09:49:48;5.97;;;5.37;;
4268;SDS011;2148;48.554;7.834;2023-09-30T09:52:13;5.47;;;4.97;;
4268;SDS011;2148;48.554;7.834;2023-09-30T09:54:41;4.97;;;4.43;;
4268;SDS011;2148;48.554;7.834;2023-09-30T09:57:08;5.40;;;5.00;;
4268;SDS011;2148;48.554;7.834;2023-09-30T09:59:35;6.20;;;5.60;;
4268;SDS011;2148;48.554;7.834;2023-09-30T10:02:01;6.30;;;5.90;;
4268;SDS011;2148;48.554;7.834;2023-09-30T10:04:31;5.03;;;4.20;;
4268;SDS011;2148;48.554;7.834;2023-09-30T10:06:56;5.83;;;5.33;;
4268;SDS011;2148;48.554;7.834;2023-09-30T10:09:22;5.47;;;4.87;;
4268;SDS011;2148;48.554;7.834;2023-09-30T10:11:48;5.53;;;4.70;;
4268;SDS011;2148;48.554;7.834;2023-09-30T10:14:32;5.27;;;4.77;;
4268;SDS011;2148;48.554;7.834;2023-09-30T10:16:58;5.20;;;4.80;;
4268;SDS011;2148;48.554;7.834;2023-09-30T10:19:24;6.83;;;5.97;;
4268;SDS011;2148;48.554;7.834;2023-09-30T10:24:44;28.70;;;8.57;;
4268;SDS011;2148;48.554;7.834;2023-09-30T10:29:47;21.03;;;5.93;;
4268;SDS011;2148;48.554;7.834;2023-09-30T10:32:14;6.10;;;4.70;;
4268;SDS011;2148;48.554;7.834;2023-09-30T10:34:46;13.40;;;5.00;;
4268;SDS011;2148;48.554;7.834;2023-09-30T10:37:20;6.27;;;4.57;;
4268;SDS011;2148;48.554;7.834;2023-09-30T10:39:52;5.93;;;4.93;;
4268;SDS011;2148;48.554;7.834;2023-09-30T10:48:32;6.57;;;5.97;;
4268;SDS011;2148;48.554;7.834;2023-09-30T10:51:00;5.97;;;5.33;;
4268;SDS011;2148;48.554;7.834;2023-09-30T10:53:27;6.80;;;6.27;;
4268;SDS011;2148;48.554;7.834;2023-09-30T10:55:56;6.87;;;6.37;;
4268;SDS011;2148;48.554;7.834;2023-09-30T11:01:07;5.73;;;5.13;;
4268;SDS011;2148;48.554;7.834;2023-09-30T11:03:33;6.30;;;5.70;;
4268;SDS011;2148;48.554;7.834;2023-09-30T11:05:58;5.03;;;4.63;;
4268;SDS011;2148;48.554;7.834;2023-09-30T11:08:24;6.10;;;5.40;;
4268;SDS011;2148;48.554;7.834;2023-09-30T11:10:51;6.50;;;5.90;;
4268;SDS011;2148;48.554;7.834;2023-09-30T11:13:17;6.57;;;5.80;;
4268;SDS011;2148;48.554;7.834;2023-09-30T11:15:43;5.37;;;4.80;;
4268;SDS011;2148;48.554;7.834;2023-09-30T11:18:27;6.67;;;4.97;;
4268;SDS011;2148;48.554;7.834;2023-09-30T11:21:02;6.10;;;5.50;;
4268;SDS011;2148;48.554;7.834;2023-09-30T11:23:35;7.63;;;4.97;;
4268;SDS011;2148;48.554;7.834;2023-09-30T11:26:01;6.00;;;5.40;;
4268;SDS011;2148;48.554;7.834;2023-09-30T11:28:34;7.33;;;5.23;;
4268;SDS011;2148;48.554;7.834;2023-09-30T11:31:02;7.27;;;5.53;;
4268;SDS011;2148;48.554;7.834;2023-09-30T11:33:27;7.57;;;5.40;;
4268;SDS011;2148;48.554;7.834;2023-09-30T11:38:29;7.03;;;5.80;;
4268;SDS011;2148;48.554;7.834;2023-09-30T11:41:01;6.50;;;5.90;;
4268;SDS011;2148;48.554;7.834;2023-09-30T11:43:28;6.47;;;5.77;;
4268;SDS011;2148;48.554;7.834;2023-09-30T11:46:07;5.80;;;5.20;;
4268;SDS011;2148;48.554;7.834;2023-09-30T11:48:37;5.87;;;4.80;;
4268;SDS011;2148;48.554;7.834;2023-09-30T11:51:03;6.37;;;5.53;;
4268;SDS011;2148;48.554;7.834;2023-09-30T11:53:29;7.20;;;6.50;;
4268;SDS011;2148;48.554;7.834;2023-09-30T11:55:56;10.23;;;5.50;;
4268;SDS011;2148;48.554;7.834;2023-09-30T11:58:23;6.80;;;5.27;;
4268;SDS011;2148;48.554;7.834;2023-09-30T12:00:48;8.13;;;6.30;;
4268;SDS011;2148;48.554;7.834;2023-09-30T12:03:15;7.60;;;5.73;;
4268;SDS011;2148;48.554;7.834;2023-09-30T12:05:41;6.97;;;6.27;;
4268;SDS011;2148;48.554;7.834;2023-09-30T12:08:06;8.63;;;6.63;;
4268;SDS011;2148;48.554;7.834;2023-09-30T12:16:28;8.03;;;6.80;;
4268;SDS011;2148;48.554;7.834;2023-09-30T12:18:55;7.43;;;6.50;;
4268;SDS011;2148;48.554;7.834;2023-09-30T12:21:20;9.77;;;6.37;;
4268;SDS011;2148;48.554;7.834;2023-09-30T12:23:45;9.53;;;6.50;;
4268;SDS011;2148;48.554;7.834;2023-09-30T12:26:11;8.20;;;7.00;;
4268;SDS011;2148;48.554;7.834;2023-09-30T12:28:37;9.87;;;6.60;;
4268;SDS011;2148;48.554;7.834;2023-09-30T12:31:02;9.10;;;6.47;;
4268;SDS011;2148;48.554;7.834;2023-09-30T12:33:28;9.20;;;6.70;;
4268;SDS011;2148;48.554;7.834;2023-09-30T12:35:55;7.13;;;5.87;;
4268;SDS011;2148;48.554;7.834;2023-09-30T12:38:20;7.63;;;6.10;;
4268;SDS011;2148;48.554;7.834;2023-09-30T12:40:45;7.93;;;6.37;;
4268;SDS011;2148;48.554;7.834;2023-09-30T12:43:11;7.30;;;6.17;;
4268;SDS011;2148;48.554;7.834;2023-09-30T12:45:36;8.90;;;7.77;;
4268;SDS011;2148;48.554;7.834;2023-09-30T12:48:04;10.00;;;8.93;;
4268;SDS011;2148;48.554;7.834;2023-09-30T12:50:29;8.60;;;6.53;;
4268;SDS011;2148;48.554;7.834;2023-09-30T12:52:54;9.33;;;6.83;;
4268;SDS011;2148;48.554;7.834;2023-09-30T12:55:20;10.03;;;6.70;;
4268;SDS011;2148;48.554;7.834;2023-09-30T12:57:45;9.53;;;6.40;;
4268;SDS011;2148;48.554;7.834;2023-09-30T13:00:10;9.23;;;5.90;;
4268;SDS011;2148;48.554;7.834;2023-09-30T13:02:36;9.50;;;8.60;;
4268;SDS011;2148;48.554;7.834;2023-09-30T13:05:01;7.87;;;6.50;;
4268;SDS011;2148;48.554;7.834;2023-09-30T13:07:27;8.47;;;6.03;;
4268;SDS011;2148;48.554;7.834;2023-09-30T13:09:52;7.83;;;7.03;;
4268;SDS011;2148;48.554;7.834;2023-09-30T13:12:17;9.13;;;6.63;;
4268;SDS011;2148;48.554;7.834;2023-09-30T13:14:43;7.80;;;6.23;;
4268;SDS011;2148;48.554;7.834;2023-09-30T13:17:08;8.63;;;5.90;;
4268;SDS011;2148;48.554;7.834;2023-09-30T13:19:33;9.67;;;6.30;;
4268;SDS011;2148;48.554;7.834;2023-09-30T13:21:58;8.73;;;6.93;;
4268;SDS011;2148;48.554;7.834;2023-09-30T13:24:24;8.53;;;5.80;;
4268;SDS011;2148;48.554;7.834;2023-09-30T13:26:49;8.47;;;7.77;;
4268;SDS011;2148;48.554;7.834;2023-09-30T13:29:17;9.10;;;8.20;;
4268;SDS011;2148;48.554;7.834;2023-09-30T13:31:43;7.10;;;5.77;;
4268;SDS011;2148;48.554;7.834;2023-09-30T13:34:09;7.43;;;5.47;;
4268;SDS011;2148;48.554;7.834;2023-09-30T13:36:35;6.43;;;5.73;;
4268;SDS011;2148;48.554;7.834;2023-09-30T13:39:00;7.63;;;5.63;;
4268;SDS011;2148;48.554;7.834;2023-09-30T13:41:26;7.83;;;5.67;;
4268;SDS011;2148;48.554;7.834;2023-09-30T13:43:51;7.80;;;5.80;;
4268;SDS011;2148;48.554;7.834;2023-09-30T13:46:17;8.17;;;6.20;;
4268;SDS011;2148;48.554;7.834;2023-09-30T13:48:42;7.53;;;5.73;;
4268;SDS011;2148;48.554;7.834;2023-09-30T13:51:08;7.63;;;6.23;;
4268;SDS011;2148;48.554;7.834;2023-09-30T13:53:34;7.73;;;6.13;;
4268;SDS011;2148;48.554;7.834;2023-09-30T13:56:00;8.47;;;5.83;;
4268;SDS011;2148;48.554;7.834;2023-09-30T13:58:25;7.97;;;6.50;;
4268;SDS011;2148;48.554;7.834;2023-09-30T14:00:50;7.73;;;6.27;;
4268;SDS011;2148;48.554;7.834;2023-09-30T14:03:17;8.17;;;6.53;;
4268;SDS011;2148;48.554;7.834;2023-09-30T14:05:43;8.83;;;7.90;;
4268;SDS011;2148;48.554;7.834;2023-09-30T14:08:10;8.87;;;5.93;;
4268;SDS011;2148;48.554;7.834;2023-09-30T14:10:35;8.73;;;7.57;;
4268;SDS011;2148;48.554;7.834;2023-09-30T14:13:01;6.50;;;5.53;;
4268;SDS011;2148;48.554;7.834;2023-09-30T14:15:26;7.00;;;5.40;;
4268;SDS011;2148;48.554;7.834;2023-09-30T14:17:53;7.63;;;6.00;;
4268;SDS011;2148;48.554;7.834;2023-09-30T14:20:20;8.27;;;6.30;;
4268;SDS011;2148;48.554;7.834;2023-09-30T14:22:45;8.63;;;6.57;;
4268;SDS011;2148;48.554;7.834;2023-09-30T14:25:11;9.17;;;6.67;;
4268;SDS011;2148;48.554;7.834;2023-09-30T14:27:36;7.37;;;6.50;;
4268;SDS011;2148;48.554;7.834;2023-09-30T14:30:02;9.17;;;8.27;;
4268;SDS011;2148;48.554;7.834;2023-09-30T14:32:29;8.83;;;6.50;;
4268;SDS011;2148;48.554;7.834;2023-09-30T14:34:54;8.53;;;6.50;;
4268;SDS011;2148;48.554;7.834;2023-09-30T14:37:20;8.33;;;6.47;;
4268;SDS011;2148;48.554;7.834;2023-09-30T14:39:45;8.77;;;7.00;;
4268;SDS011;2148;48.554;7.834;2023-09-30T14:42:10;8.33;;;6.53;;
4268;SDS011;2148;48.554;7.834;2023-09-30T14:44:36;9.50;;;6.30;;
4268;SDS011;2148;48.554;7.834;2023-09-30T14:47:01;7.60;;;6.30;;
4268;SDS011;2148;48.554;7.834;2023-09-30T14:49:26;8.03;;;6.27;;
4268;SDS011;2148;48.554;7.834;2023-09-30T14:51:52;8.43;;;6.87;;
4268;SDS011;2148;48.554;7.834;2023-09-30T14:54:17;7.27;;;6.57;;
4268;SDS011;2148;48.554;7.834;2023-09-30T14:56:42;7.93;;;7.13;;
4268;SDS011;2148;48.554;7.834;2023-09-30T14:59:07;7.27;;;6.50;;
4268;SDS011;2148;48.554;7.834;2023-09-30T15:01:33;7.80;;;6.50;;
4268;SDS011;2148;48.554;7.834;2023-09-30T15:03:58;8.23;;;6.50;;
4268;SDS011;2148;48.554;7.834;2023-09-30T15:06:24;9.53;;;8.63;;
4268;SDS011;2148;48.554;7.834;2023-09-30T15:08:49;8.20;;;6.53;;
4268;SDS011;2148;48.554;7.834;2023-09-30T15:11:15;7.93;;;6.17;;
4268;SDS011;2148;48.554;7.834;2023-09-30T15:13:40;7.07;;;6.37;;
4268;SDS011;2148;48.554;7.834;2023-09-30T15:16:21;8.17;;;6.57;;
4268;SDS011;2148;48.554;7.834;2023-09-30T15:18:47;8.17;;;5.90;;
4268;SDS011;2148;48.554;7.834;2023-09-30T15:21:13;9.37;;;8.57;;
4268;SDS011;2148;48.554;7.834;2023-09-30T15:23:39;6.97;;;5.57;;
4268;SDS011;2148;48.554;7.834;2023-09-30T15:26:05;7.33;;;5.70;;
4268;SDS011;2148;48.554;7.834;2023-09-30T15:28:30;9.67;;;6.20;;
4268;SDS011;2148;48.554;7.834;2023-09-30T15:30:57;7.77;;;6.47;;
4268;SDS011;2148;48.554;7.834;2023-09-30T15:33:23;8.40;;;6.10;;
4268;SDS011;2148;48.554;7.834;2023-09-30T15:35:49;9.23;;;6.60;;